sensor_id;sensor_type;location;lat;lon;timestamp;temperature;humidity
46676;DHT22;32412;51.478;5.694;2023-05-18T00:02:09;7.40;99.90
46676;DHT22;32412;51.478;5.694;2023-05-18T00:04:57;7.40;99.90
46676;DHT22;32412;51.478;5.694;2023-05-18T00:07:58;7.40;99.90
46676;DHT22;32412;51.478;5.694;2023-05-18T00:13:22;7.30;99.90
46676;DHT22;32412;51.478;5.694;2023-05-18T00:16:03;7.30;99.90
46676;DHT22;32412;51.478;5.694;2023-05-18T00:23:57;7.10;99.90
46676;DHT22;32412;51.478;5.694;2023-05-18T00:26:24;7.10;99.90
46676;DHT22;32412;51.478;5.694;2023-05-18T00:28:53;7.10;99.90
46676;DHT22;32412;51.478;5.694;2023-05-18T00:31:19;7.00;99.90
46676;DHT22;32412;51.478;5.694;2023-05-18T00:33:47;7.00;99.90
46676;DHT22;32412;51.478;5.694;2023-05-18T00:36:55;7.00;99.90
46676;DHT22;32412;51.478;5.694;2023-05-18T00:39:24;6.90;99.90
46676;DHT22;32412;51.478;5.694;2023-05-18T00:42:35;6.80;99.90
46676;DHT22;32412;51.478;5.694;2023-05-18T00:45:32;6.80;99.90
46676;DHT22;32412;51.478;5.694;2023-05-18T00:48:00;6.80;99.90
46676;DHT22;32412;51.478;5.694;2023-05-18T00:50:46;6.70;99.90
46676;DHT22;32412;51.478;5.694;2023-05-18T00:53:12;6.70;99.90
46676;DHT22;32412;51.478;5.694;2023-05-18T00:55:38;6.60;99.90
46676;DHT22;32412;51.478;5.694;2023-05-18T00:58:04;6.60;99.90
46676;DHT22;32412;51.478;5.694;2023-05-18T01:00:39;6.60;99.90
46676;DHT22;32412;51.478;5.694;2023-05-18T01:03:05;6.60;99.90
46676;DHT22;32412;51.478;5.694;2023-05-18T01:05:38;6.60;99.90
46676;DHT22;32412;51.478;5.694;2023-05-18T01:08:07;6.50;99.90
46676;DHT22;32412;51.478;5.694;2023-05-18T01:10:36;6.60;99.90
46676;DHT22;32412;51.478;5.694;2023-05-18T01:13:06;6.50;99.90
46676;DHT22;32412;51.478;5.694;2023-05-18T01:15:37;6.40;99.90
46676;DHT22;32412;51.478;5.694;2023-05-18T01:20:48;6.30;99.90
46676;DHT22;32412;51.478;5.694;2023-05-18T01:26:29;6.30;99.90
46676;DHT22;32412;51.478;5.694;2023-05-18T01:29:01;6.20;99.90
46676;DHT22;32412;51.478;5.694;2023-05-18T01:31:28;6.20;99.90
46676;DHT22;32412;51.478;5.694;2023-05-18T01:33:54;6.10;99.90
46676;DHT22;32412;51.478;5.694;2023-05-18T01:36:20;6.10;99.90
46676;DHT22;32412;51.478;5.694;2023-05-18T01:38:49;6.00;99.90
46676;DHT22;32412;51.478;5.694;2023-05-18T01:44:01;6.00;99.90
46676;DHT22;32412;51.478;5.694;2023-05-18T01:46:40;6.00;99.90
46676;DHT22;32412;51.478;5.694;2023-05-18T01:49:16;6.00;99.90
46676;DHT22;32412;51.478;5.694;2023-05-18T01:51:46;6.00;99.90
46676;DHT22;32412;51.478;5.694;2023-05-18T01:54:16;6.00;99.90
46676;DHT22;32412;51.478;5.694;2023-05-18T01:56:44;6.00;99.90
46676;DHT22;32412;51.478;5.694;2023-05-18T01:59:11;5.90;99.90
46676;DHT22;32412;51.478;5.694;2023-05-18T02:01:37;5.90;99.90
46676;DHT22;32412;51.478;5.694;2023-05-18T02:04:07;5.80;99.90
46676;DHT22;32412;51.478;5.694;2023-05-18T02:06:33;5.80;99.90
46676;DHT22;32412;51.478;5.694;2023-05-18T02:08:59;5.90;99.90
46676;DHT22;32412;51.478;5.694;2023-05-18T02:11:25;5.80;99.90
46676;DHT22;32412;51.478;5.694;2023-05-18T02:13:50;5.80;99.90
46676;DHT22;32412;51.478;5.694;2023-05-18T02:16:16;5.80;99.90
46676;DHT22;32412;51.478;5.694;2023-05-18T02:18:42;5.80;99.90
46676;DHT22;32412;51.478;5.694;2023-05-18T02:21:09;5.80;99.90
46676;DHT22;32412;51.478;5.694;2023-05-18T02:23:34;5.80;99.90
46676;DHT22;32412;51.478;5.694;2023-05-18T02:26:00;5.80;99.90
46676;DHT22;32412;51.478;5.694;2023-05-18T02:28:26;5.80;99.90
46676;DHT22;32412;51.478;5.694;2023-05-18T02:30:52;5.80;99.90
46676;DHT22;32412;51.478;5.694;2023-05-18T02:33:18;5.80;99.90
46676;DHT22;32412;51.478;5.694;2023-05-18T02:35:44;5.80;99.90
46676;DHT22;32412;51.478;5.694;2023-05-18T02:38:10;5.70;99.90
46676;DHT22;32412;51.478;5.694;2023-05-18T02:40:36;5.70;99.90
46676;DHT22;32412;51.478;5.694;2023-05-18T02:43:02;5.70;99.90
46676;DHT22;32412;51.478;5.694;2023-05-18T02:45:27;5.70;99.90
46676;DHT22;32412;51.478;5.694;2023-05-18T02:47:53;5.60;99.90
46676;DHT22;32412;51.478;5.694;2023-05-18T02:50:19;5.60;99.90
46676;DHT22;32412;51.478;5.694;2023-05-18T02:52:45;5.70;99.90
46676;DHT22;32412;51.478;5.694;2023-05-18T02:55:13;5.70;99.90
46676;DHT22;32412;51.478;5.694;2023-05-18T02:57:39;5.60;99.90
46676;DHT22;32412;51.478;5.694;2023-05-18T03:00:12;5.60;99.90
46676;DHT22;32412;51.478;5.694;2023-05-18T03:02:39;5.60;99.90
46676;DHT22;32412;51.478;5.694;2023-05-18T03:05:06;5.70;99.90
46676;DHT22;32412;51.478;5.694;2023-05-18T03:07:31;5.60;99.90
46676;DHT22;32412;51.478;5.694;2023-05-18T03:09:57;5.70;99.90
46676;DHT22;32412;51.478;5.694;2023-05-18T03:12:23;5.70;99.90
46676;DHT22;32412;51.478;5.694;2023-05-18T03:14:58;5.70;99.90
46676;DHT22;32412;51.478;5.694;2023-05-18T03:17:23;5.70;99.90
46676;DHT22;32412;51.478;5.694;2023-05-18T03:19:52;5.80;99.90
46676;DHT22;32412;51.478;5.694;2023-05-18T03:22:17;5.80;99.90
46676;DHT22;32412;51.478;5.694;2023-05-18T03:24:43;5.80;99.90
46676;DHT22;32412;51.478;5.694;2023-05-18T03:27:09;5.80;99.90
46676;DHT22;32412;51.478;5.694;2023-05-18T03:29:37;5.80;99.90
46676;DHT22;32412;51.478;5.694;2023-05-18T03:32:03;5.80;99.90
46676;DHT22;32412;51.478;5.694;2023-05-18T03:34:28;5.80;99.90
46676;DHT22;32412;51.478;5.694;2023-05-18T03:36:54;5.80;99.90
46676;DHT22;32412;51.478;5.694;2023-05-18T03:39:22;5.80;99.90
46676;DHT22;32412;51.478;5.694;2023-05-18T03:41:48;5.80;99.90
46676;DHT22;32412;51.478;5.694;2023-05-18T03:44:14;5.90;99.90
46676;DHT22;32412;51.478;5.694;2023-05-18T03:46:40;5.90;99.90
46676;DHT22;32412;51.478;5.694;2023-05-18T03:49:06;5.90;99.90
46676;DHT22;32412;51.478;5.694;2023-05-18T03:51:32;6.00;99.90
46676;DHT22;32412;51.478;5.694;2023-05-18T03:54:01;6.00;99.90
46676;DHT22;32412;51.478;5.694;2023-05-18T03:56:26;6.00;99.90
46676;DHT22;32412;51.478;5.694;2023-05-18T03:58:55;6.00;99.90
46676;DHT22;32412;51.478;5.694;2023-05-18T04:01:23;6.10;99.90
46676;DHT22;32412;51.478;5.694;2023-05-18T04:03:49;6.10;99.90
46676;DHT22;32412;51.478;5.694;2023-05-18T04:06:16;6.20;99.90
46676;DHT22;32412;51.478;5.694;2023-05-18T04:08:41;6.10;99.90
46676;DHT22;32412;51.478;5.694;2023-05-18T04:11:08;6.20;99.90
46676;DHT22;32412;51.478;5.694;2023-05-18T04:13:36;6.30;99.90
46676;DHT22;32412;51.478;5.694;2023-05-18T04:16:02;6.30;99.90
46676;DHT22;32412;51.478;5.694;2023-05-18T04:18:28;6.40;99.90
46676;DHT22;32412;51.478;5.694;2023-05-18T04:20:55;6.40;99.90
46676;DHT22;32412;51.478;5.694;2023-05-18T04:23:24;6.50;99.90
46676;DHT22;32412;51.478;5.694;2023-05-18T04:25:51;6.50;99.90
46676;DHT22;32412;51.478;5.694;2023-05-18T04:28:50;6.50;99.90
46676;DHT22;32412;51.478;5.694;2023-05-18T04:34:53;6.60;99.90
46676;DHT22;32412;51.478;5.694;2023-05-18T04:37:22;6.80;99.90
46676;DHT22;32412;51.478;5.694;2023-05-18T04:39:48;6.70;99.90
46676;DHT22;32412;51.478;5.694;2023-05-18T04:42:13;6.80;99.90
46676;DHT22;32412;51.478;5.694;2023-05-18T04:44:43;6.90;99.90
46676;DHT22;32412;51.478;5.694;2023-05-18T04:47:09;6.90;99.90
46676;DHT22;32412;51.478;5.694;2023-05-18T04:49:38;6.90;99.90
46676;DHT22;32412;51.478;5.694;2023-05-18T04:52:04;6.90;99.90
46676;DHT22;32412;51.478;5.694;2023-05-18T04:54:32;6.90;99.90
46676;DHT22;32412;51.478;5.694;2023-05-18T04:57:01;6.90;99.90
46676;DHT22;32412;51.478;5.694;2023-05-18T04:59:34;7.00;99.90
46676;DHT22;32412;51.478;5.694;2023-05-18T05:02:02;7.00;99.90
46676;DHT22;32412;51.478;5.694;2023-05-18T05:04:31;7.00;99.90
46676;DHT22;32412;51.478;5.694;2023-05-18T05:07:03;7.00;99.90
46676;DHT22;32412;51.478;5.694;2023-05-18T05:09:29;7.00;99.90
46676;DHT22;32412;51.478;5.694;2023-05-18T05:11:55;7.10;99.90
46676;DHT22;32412;51.478;5.694;2023-05-18T05:14:27;7.00;99.90
46676;DHT22;32412;51.478;5.694;2023-05-18T05:16:53;7.10;99.90
46676;DHT22;32412;51.478;5.694;2023-05-18T05:22:56;7.20;99.90
46676;DHT22;32412;51.478;5.694;2023-05-18T05:25:33;7.20;99.90
46676;DHT22;32412;51.478;5.694;2023-05-18T05:28:05;7.20;99.90
46676;DHT22;32412;51.478;5.694;2023-05-18T05:30:44;7.20;99.90
46676;DHT22;32412;51.478;5.694;2023-05-18T05:33:40;7.20;99.90
46676;DHT22;32412;51.478;5.694;2023-05-18T05:36:30;7.30;99.90
46676;DHT22;32412;51.478;5.694;2023-05-18T05:38:58;7.30;99.90
46676;DHT22;32412;51.478;5.694;2023-05-18T05:41:49;7.30;99.90
46676;DHT22;32412;51.478;5.694;2023-05-18T05:44:18;7.40;99.90
46676;DHT22;32412;51.478;5.694;2023-05-18T05:46:46;7.50;99.90
46676;DHT22;32412;51.478;5.694;2023-05-18T05:49:12;7.50;99.90
46676;DHT22;32412;51.478;5.694;2023-05-18T05:54:18;7.60;99.90
46676;DHT22;32412;51.478;5.694;2023-05-18T05:56:44;7.70;99.90
46676;DHT22;32412;51.478;5.694;2023-05-18T05:59:10;7.80;99.90
46676;DHT22;32412;51.478;5.694;2023-05-18T06:01:36;7.90;99.90
46676;DHT22;32412;51.478;5.694;2023-05-18T06:17:30;8.30;99.90
46676;DHT22;32412;51.478;5.694;2023-05-18T06:19:56;8.30;99.90
46676;DHT22;32412;51.478;5.694;2023-05-18T06:22:22;8.30;99.90
46676;DHT22;32412;51.478;5.694;2023-05-18T06:24:48;8.60;99.90
46676;DHT22;32412;51.478;5.694;2023-05-18T06:27:16;8.60;99.90
46676;DHT22;32412;51.478;5.694;2023-05-18T06:29:45;8.70;99.90
46676;DHT22;32412;51.478;5.694;2023-05-18T06:32:38;8.70;99.90
46676;DHT22;32412;51.478;5.694;2023-05-18T06:35:09;8.90;99.90
46676;DHT22;32412;51.478;5.694;2023-05-18T06:37:40;8.90;99.90
46676;DHT22;32412;51.478;5.694;2023-05-18T06:40:09;8.90;99.90
46676;DHT22;32412;51.478;5.694;2023-05-18T06:42:35;9.00;99.90
46676;DHT22;32412;51.478;5.694;2023-05-18T06:45:02;9.20;99.90
46676;DHT22;32412;51.478;5.694;2023-05-18T06:47:27;9.20;99.90
46676;DHT22;32412;51.478;5.694;2023-05-18T06:49:53;9.50;99.90
46676;DHT22;32412;51.478;5.694;2023-05-18T06:52:18;9.90;99.90
46676;DHT22;32412;51.478;5.694;2023-05-18T06:54:44;10.20;99.90
46676;DHT22;32412;51.478;5.694;2023-05-18T06:57:10;10.30;99.90
46676;DHT22;32412;51.478;5.694;2023-05-18T06:59:36;10.40;99.90
46676;DHT22;32412;51.478;5.694;2023-05-18T07:02:01;10.30;99.90
46676;DHT22;32412;51.478;5.694;2023-05-18T07:04:28;10.30;99.90
46676;DHT22;32412;51.478;5.694;2023-05-18T07:06:53;10.40;99.90
46676;DHT22;32412;51.478;5.694;2023-05-18T07:09:21;10.50;99.90
46676;DHT22;32412;51.478;5.694;2023-05-18T07:11:47;10.60;99.90
46676;DHT22;32412;51.478;5.694;2023-05-18T07:14:13;10.80;99.90
46676;DHT22;32412;51.478;5.694;2023-05-18T07:16:38;10.90;99.90
46676;DHT22;32412;51.478;5.694;2023-05-18T07:19:04;11.00;99.90
46676;DHT22;32412;51.478;5.694;2023-05-18T07:21:30;11.20;99.90
46676;DHT22;32412;51.478;5.694;2023-05-18T07:23:56;11.10;99.90
46676;DHT22;32412;51.478;5.694;2023-05-18T07:26:21;10.90;99.90
46676;DHT22;32412;51.478;5.694;2023-05-18T07:28:47;11.10;99.90
46676;DHT22;32412;51.478;5.694;2023-05-18T07:31:14;11.40;99.90
46676;DHT22;32412;51.478;5.694;2023-05-18T07:33:43;11.50;99.90
46676;DHT22;32412;51.478;5.694;2023-05-18T07:36:09;11.50;99.90
46676;DHT22;32412;51.478;5.694;2023-05-18T07:38:35;11.80;99.90
46676;DHT22;32412;51.478;5.694;2023-05-18T07:41:00;11.90;99.90
46676;DHT22;32412;51.478;5.694;2023-05-18T07:43:26;11.80;99.90
46676;DHT22;32412;51.478;5.694;2023-05-18T07:45:52;11.80;99.90
46676;DHT22;32412;51.478;5.694;2023-05-18T07:48:17;11.90;99.90
46676;DHT22;32412;51.478;5.694;2023-05-18T07:50:43;11.80;99.90
46676;DHT22;32412;51.478;5.694;2023-05-18T07:53:09;11.70;99.90
46676;DHT22;32412;51.478;5.694;2023-05-18T07:55:45;11.60;99.90
46676;DHT22;32412;51.478;5.694;2023-05-18T07:58:11;11.50;99.90
46676;DHT22;32412;51.478;5.694;2023-05-18T08:00:37;11.60;99.90
46676;DHT22;32412;51.478;5.694;2023-05-18T08:03:03;11.70;99.90
46676;DHT22;32412;51.478;5.694;2023-05-18T08:05:31;11.80;99.90
46676;DHT22;32412;51.478;5.694;2023-05-18T08:07:57;12.00;99.90
46676;DHT22;32412;51.478;5.694;2023-05-18T08:10:23;12.20;99.90
46676;DHT22;32412;51.478;5.694;2023-05-18T08:12:48;12.50;99.90
46676;DHT22;32412;51.478;5.694;2023-05-18T08:15:15;12.60;99.90
46676;DHT22;32412;51.478;5.694;2023-05-18T08:17:40;12.70;99.90
46676;DHT22;32412;51.478;5.694;2023-05-18T08:20:06;12.70;99.90
46676;DHT22;32412;51.478;5.694;2023-05-18T08:22:33;12.90;99.90
46676;DHT22;32412;51.478;5.694;2023-05-18T08:24:58;12.80;99.90
46676;DHT22;32412;51.478;5.694;2023-05-18T08:27:25;12.90;99.90
46676;DHT22;32412;51.478;5.694;2023-05-18T08:29:51;12.90;99.90
46676;DHT22;32412;51.478;5.694;2023-05-18T08:32:17;12.80;99.90
46676;DHT22;32412;51.478;5.694;2023-05-18T08:34:46;12.90;99.90
46676;DHT22;32412;51.478;5.694;2023-05-18T08:37:12;13.00;99.90
46676;DHT22;32412;51.478;5.694;2023-05-18T08:39:38;12.90;99.90
46676;DHT22;32412;51.478;5.694;2023-05-18T08:42:06;12.70;99.90
46676;DHT22;32412;51.478;5.694;2023-05-18T08:44:44;12.80;99.90
46676;DHT22;32412;51.478;5.694;2023-05-18T08:47:10;12.80;99.90
46676;DHT22;32412;51.478;5.694;2023-05-18T08:49:37;12.90;99.90
46676;DHT22;32412;51.478;5.694;2023-05-18T08:52:04;13.00;99.90
46676;DHT22;32412;51.478;5.694;2023-05-18T08:54:32;13.10;99.90
46676;DHT22;32412;51.478;5.694;2023-05-18T08:57:01;13.30;99.90
46676;DHT22;32412;51.478;5.694;2023-05-18T08:59:30;13.60;99.90
46676;DHT22;32412;51.478;5.694;2023-05-18T09:01:57;13.90;99.90
46676;DHT22;32412;51.478;5.694;2023-05-18T09:04:23;13.70;99.90
46676;DHT22;32412;51.478;5.694;2023-05-18T09:06:50;13.60;99.90
46676;DHT22;32412;51.478;5.694;2023-05-18T09:09:18;13.80;99.90
46676;DHT22;32412;51.478;5.694;2023-05-18T09:11:46;13.90;99.90
46676;DHT22;32412;51.478;5.694;2023-05-18T09:14:12;14.20;99.90
46676;DHT22;32412;51.478;5.694;2023-05-18T09:16:38;14.30;99.90
46676;DHT22;32412;51.478;5.694;2023-05-18T09:19:03;14.20;99.90
46676;DHT22;32412;51.478;5.694;2023-05-18T09:21:30;14.10;99.90
46676;DHT22;32412;51.478;5.694;2023-05-18T09:23:59;14.50;99.90
46676;DHT22;32412;51.478;5.694;2023-05-18T09:26:24;15.00;99.90
46676;DHT22;32412;51.478;5.694;2023-05-18T09:28:52;15.50;99.90
46676;DHT22;32412;51.478;5.694;2023-05-18T09:31:20;16.20;99.70
46676;DHT22;32412;51.478;5.694;2023-05-18T09:33:46;16.60;99.70
46676;DHT22;32412;51.478;5.694;2023-05-18T09:36:13;16.60;99.10
46676;DHT22;32412;51.478;5.694;2023-05-18T09:38:44;16.80;99.70
46676;DHT22;32412;51.478;5.694;2023-05-18T09:41:15;16.60;98.40
46676;DHT22;32412;51.478;5.694;2023-05-18T09:43:42;16.30;98.40
46676;DHT22;32412;51.478;5.694;2023-05-18T09:46:09;16.80;98.20
46676;DHT22;32412;51.478;5.694;2023-05-18T09:48:36;15.90;98.80
46676;DHT22;32412;51.478;5.694;2023-05-18T09:51:05;15.90;99.20
46676;DHT22;32412;51.478;5.694;2023-05-18T09:53:34;16.40;99.10
46676;DHT22;32412;51.478;5.694;2023-05-18T09:56:04;17.00;98.30
46676;DHT22;32412;51.478;5.694;2023-05-18T09:58:34;16.30;97.70
46676;DHT22;32412;51.478;5.694;2023-05-18T10:01:01;15.40;99.00
46676;DHT22;32412;51.478;5.694;2023-05-18T10:03:31;14.90;99.70
46676;DHT22;32412;51.478;5.694;2023-05-18T10:06:05;14.80;99.90
46676;DHT22;32412;51.478;5.694;2023-05-18T10:08:32;15.70;99.90
46676;DHT22;32412;51.478;5.694;2023-05-18T10:10:58;15.80;98.80
46676;DHT22;32412;51.478;5.694;2023-05-18T10:13:26;15.60;98.80
46676;DHT22;32412;51.478;5.694;2023-05-18T10:15:54;15.40;99.90
46676;DHT22;32412;51.478;5.694;2023-05-18T10:18:32;15.80;98.70
46676;DHT22;32412;51.478;5.694;2023-05-18T10:20:59;15.50;99.20
46676;DHT22;32412;51.478;5.694;2023-05-18T10:23:29;15.60;99.30
46676;DHT22;32412;51.478;5.694;2023-05-18T10:25:55;15.40;99.00
46676;DHT22;32412;51.478;5.694;2023-05-18T10:28:44;15.60;99.10
46676;DHT22;32412;51.478;5.694;2023-05-18T10:31:12;15.60;98.90
46676;DHT22;32412;51.478;5.694;2023-05-18T10:33:40;16.30;98.60
46676;DHT22;32412;51.478;5.694;2023-05-18T10:36:06;16.60;98.40
46676;DHT22;32412;51.478;5.694;2023-05-18T10:38:36;16.80;97.80
46676;DHT22;32412;51.478;5.694;2023-05-18T10:41:04;16.40;97.40
46676;DHT22;32412;51.478;5.694;2023-05-18T10:43:32;17.50;96.60
46676;DHT22;32412;51.478;5.694;2023-05-18T10:46:01;17.80;96.70
46676;DHT22;32412;51.478;5.694;2023-05-18T10:48:28;18.40;96.10
46676;DHT22;32412;51.478;5.694;2023-05-18T10:50:55;19.50;94.50
46676;DHT22;32412;51.478;5.694;2023-05-18T10:53:23;19.30;94.40
46676;DHT22;32412;51.478;5.694;2023-05-18T10:55:50;19.30;93.90
46676;DHT22;32412;51.478;5.694;2023-05-18T10:58:18;19.40;94.60
46676;DHT22;32412;51.478;5.694;2023-05-18T11:01:10;19.60;93.70
46676;DHT22;32412;51.478;5.694;2023-05-18T11:03:37;20.20;93.50
46676;DHT22;32412;51.478;5.694;2023-05-18T11:06:10;20.60;93.30
46676;DHT22;32412;51.478;5.694;2023-05-18T11:08:47;21.10;92.20
46676;DHT22;32412;51.478;5.694;2023-05-18T11:11:14;21.20;92.10
46676;DHT22;32412;51.478;5.694;2023-05-18T11:13:46;21.20;91.10
46676;DHT22;32412;51.478;5.694;2023-05-18T11:16:14;20.80;91.00
46676;DHT22;32412;51.478;5.694;2023-05-18T11:18:50;21.00;91.60
46676;DHT22;32412;51.478;5.694;2023-05-18T11:21:18;20.20;91.00
46676;DHT22;32412;51.478;5.694;2023-05-18T11:27:14;20.10;92.00
46676;DHT22;32412;51.478;5.694;2023-05-18T11:29:42;20.60;92.10
46676;DHT22;32412;51.478;5.694;2023-05-18T11:32:28;20.90;91.60
46676;DHT22;32412;51.478;5.694;2023-05-18T11:34:57;20.60;91.10
46676;DHT22;32412;51.478;5.694;2023-05-18T11:40:45;19.90;90.90
46676;DHT22;32412;51.478;5.694;2023-05-18T11:43:24;20.20;91.60
46676;DHT22;32412;51.478;5.694;2023-05-18T11:45:55;20.10;90.80
46676;DHT22;32412;51.478;5.694;2023-05-18T11:48:22;19.70;91.50
46676;DHT22;32412;51.478;5.694;2023-05-18T11:50:48;19.90;91.50
46676;DHT22;32412;51.478;5.694;2023-05-18T11:53:17;20.10;91.30
46676;DHT22;32412;51.478;5.694;2023-05-18T11:55:43;20.80;90.80
46676;DHT22;32412;51.478;5.694;2023-05-18T11:58:10;21.10;90.50
46676;DHT22;32412;51.478;5.694;2023-05-18T12:00:36;21.10;90.30
46676;DHT22;32412;51.478;5.694;2023-05-18T12:03:03;20.70;88.80
46676;DHT22;32412;51.478;5.694;2023-05-18T12:05:32;20.80;90.10
46676;DHT22;32412;51.478;5.694;2023-05-18T12:08:00;20.90;88.30
46676;DHT22;32412;51.478;5.694;2023-05-18T12:10:25;21.30;88.30
46676;DHT22;32412;51.478;5.694;2023-05-18T12:12:52;21.80;86.70
46676;DHT22;32412;51.478;5.694;2023-05-18T12:15:21;21.20;86.90
46676;DHT22;32412;51.478;5.694;2023-05-18T12:17:48;22.10;89.70
46676;DHT22;32412;51.478;5.694;2023-05-18T12:22:42;22.10;86.60
46676;DHT22;32412;51.478;5.694;2023-05-18T12:25:09;22.20;85.00
46676;DHT22;32412;51.478;5.694;2023-05-18T12:27:39;22.70;85.30
46676;DHT22;32412;51.478;5.694;2023-05-18T12:30:26;23.00;85.00
46676;DHT22;32412;51.478;5.694;2023-05-18T12:33:11;22.70;84.00
46676;DHT22;32412;51.478;5.694;2023-05-18T12:35:37;23.00;84.40
46676;DHT22;32412;51.478;5.694;2023-05-18T12:38:02;22.80;85.40
46676;DHT22;32412;51.478;5.694;2023-05-18T12:40:35;22.50;85.40
46676;DHT22;32412;51.478;5.694;2023-05-18T12:43:07;23.00;83.90
46676;DHT22;32412;51.478;5.694;2023-05-18T12:45:32;22.20;84.00
46676;DHT22;32412;51.478;5.694;2023-05-18T12:48:10;21.60;85.20
46676;DHT22;32412;51.478;5.694;2023-05-18T12:50:48;20.40;85.30
46676;DHT22;32412;51.478;5.694;2023-05-18T12:53:15;20.00;87.00
46676;DHT22;32412;51.478;5.694;2023-05-18T12:55:41;19.10;87.60
46676;DHT22;32412;51.478;5.694;2023-05-18T12:58:13;19.30;89.20
46676;DHT22;32412;51.478;5.694;2023-05-18T13:00:46;19.20;87.20
46676;DHT22;32412;51.478;5.694;2023-05-18T13:03:15;19.70;88.50
46676;DHT22;32412;51.478;5.694;2023-05-18T13:05:45;20.20;87.90
46676;DHT22;32412;51.478;5.694;2023-05-18T13:08:15;19.80;87.10
46676;DHT22;32412;51.478;5.694;2023-05-18T13:10:46;19.00;87.70
46676;DHT22;32412;51.478;5.694;2023-05-18T13:13:14;18.00;89.90
46676;DHT22;32412;51.478;5.694;2023-05-18T13:15:42;17.30;90.10
46676;DHT22;32412;51.478;5.694;2023-05-18T13:18:09;17.40;91.50
46676;DHT22;32412;51.478;5.694;2023-05-18T13:20:43;17.50;91.80
46676;DHT22;32412;51.478;5.694;2023-05-18T13:23:22;17.50;91.10
46676;DHT22;32412;51.478;5.694;2023-05-18T13:25:49;17.20;91.60
46676;DHT22;32412;51.478;5.694;2023-05-18T13:28:16;17.30;91.40
46676;DHT22;32412;51.478;5.694;2023-05-18T13:30:43;17.60;92.10
46676;DHT22;32412;51.478;5.694;2023-05-18T13:33:09;18.00;91.60
46676;DHT22;32412;51.478;5.694;2023-05-18T13:35:36;17.80;90.90
46676;DHT22;32412;51.478;5.694;2023-05-18T13:38:02;17.60;90.80
46676;DHT22;32412;51.478;5.694;2023-05-18T13:40:28;17.20;91.40
46676;DHT22;32412;51.478;5.694;2023-05-18T13:42:53;17.30;92.00
46676;DHT22;32412;51.478;5.694;2023-05-18T13:45:19;17.00;92.10
46676;DHT22;32412;51.478;5.694;2023-05-18T13:47:48;17.30;92.10
46676;DHT22;32412;51.478;5.694;2023-05-18T13:50:16;17.30;91.70
46676;DHT22;32412;51.478;5.694;2023-05-18T13:52:42;17.30;91.80
46676;DHT22;32412;51.478;5.694;2023-05-18T13:55:08;17.50;91.00
46676;DHT22;32412;51.478;5.694;2023-05-18T13:57:34;16.90;91.00
46676;DHT22;32412;51.478;5.694;2023-05-18T13:59:59;16.90;91.20
46676;DHT22;32412;51.478;5.694;2023-05-18T14:02:34;17.00;91.20
46676;DHT22;32412;51.478;5.694;2023-05-18T14:05:00;17.10;90.80
46676;DHT22;32412;51.478;5.694;2023-05-18T14:07:25;17.10;91.20
46676;DHT22;32412;51.478;5.694;2023-05-18T14:09:51;17.00;91.40
46676;DHT22;32412;51.478;5.694;2023-05-18T14:12:17;17.20;92.10
46676;DHT22;32412;51.478;5.694;2023-05-18T14:14:42;17.20;92.20
46676;DHT22;32412;51.478;5.694;2023-05-18T14:17:08;17.30;92.20
46676;DHT22;32412;51.478;5.694;2023-05-18T14:19:34;17.30;92.00
46676;DHT22;32412;51.478;5.694;2023-05-18T14:22:00;17.10;91.80
46676;DHT22;32412;51.478;5.694;2023-05-18T14:24:26;17.00;92.40
46676;DHT22;32412;51.478;5.694;2023-05-18T14:26:52;16.90;92.80
46676;DHT22;32412;51.478;5.694;2023-05-18T14:29:18;16.80;93.20
46676;DHT22;32412;51.478;5.694;2023-05-18T14:31:44;16.60;93.10
46676;DHT22;32412;51.478;5.694;2023-05-18T14:34:10;16.40;93.10
46676;DHT22;32412;51.478;5.694;2023-05-18T14:36:36;16.30;93.50
46676;DHT22;32412;51.478;5.694;2023-05-18T14:39:02;16.30;93.70
46676;DHT22;32412;51.478;5.694;2023-05-18T14:41:29;16.40;94.00
46676;DHT22;32412;51.478;5.694;2023-05-18T14:43:54;16.50;93.90
46676;DHT22;32412;51.478;5.694;2023-05-18T14:46:20;16.30;93.40
46676;DHT22;32412;51.478;5.694;2023-05-18T14:48:46;16.40;94.30
46676;DHT22;32412;51.478;5.694;2023-05-18T14:51:12;16.40;93.80
46676;DHT22;32412;51.478;5.694;2023-05-18T14:53:38;16.20;93.80
46676;DHT22;32412;51.478;5.694;2023-05-18T14:56:04;16.20;93.90
46676;DHT22;32412;51.478;5.694;2023-05-18T14:58:33;16.00;93.60
46676;DHT22;32412;51.478;5.694;2023-05-18T15:00:59;16.10;93.60
46676;DHT22;32412;51.478;5.694;2023-05-18T15:03:24;16.10;93.60
46676;DHT22;32412;51.478;5.694;2023-05-18T15:05:50;16.00;93.30
46676;DHT22;32412;51.478;5.694;2023-05-18T15:08:16;16.10;93.90
46676;DHT22;32412;51.478;5.694;2023-05-18T15:10:41;16.20;93.80
46676;DHT22;32412;51.478;5.694;2023-05-18T15:13:07;16.30;93.40
46676;DHT22;32412;51.478;5.694;2023-05-18T15:15:33;16.20;93.20
46676;DHT22;32412;51.478;5.694;2023-05-18T15:17:58;16.40;94.10
46676;DHT22;32412;51.478;5.694;2023-05-18T15:20:24;16.40;93.50
46676;DHT22;32412;51.478;5.694;2023-05-18T15:22:51;16.30;93.30
46676;DHT22;32412;51.478;5.694;2023-05-18T15:25:17;16.30;93.10
46676;DHT22;32412;51.478;5.694;2023-05-18T15:27:42;16.30;94.00
46676;DHT22;32412;51.478;5.694;2023-05-18T15:30:08;16.50;93.80
46676;DHT22;32412;51.478;5.694;2023-05-18T15:32:39;16.10;93.10
46676;DHT22;32412;51.478;5.694;2023-05-18T15:35:06;16.10;93.40
46676;DHT22;32412;51.478;5.694;2023-05-18T15:37:31;16.30;93.70
46676;DHT22;32412;51.478;5.694;2023-05-18T15:39:57;16.20;93.70
46676;DHT22;32412;51.478;5.694;2023-05-18T15:42:23;16.10;93.50
46676;DHT22;32412;51.478;5.694;2023-05-18T15:44:49;16.00;94.00
46676;DHT22;32412;51.478;5.694;2023-05-18T15:47:15;16.00;94.00
46676;DHT22;32412;51.478;5.694;2023-05-18T15:49:41;15.90;93.70
46676;DHT22;32412;51.478;5.694;2023-05-18T15:52:07;15.80;93.40
46676;DHT22;32412;51.478;5.694;2023-05-18T15:54:33;15.90;93.50
46676;DHT22;32412;51.478;5.694;2023-05-18T15:56:59;15.90;93.70
46676;DHT22;32412;51.478;5.694;2023-05-18T15:59:26;15.90;93.70
46676;DHT22;32412;51.478;5.694;2023-05-18T16:01:51;16.10;93.80
46676;DHT22;32412;51.478;5.694;2023-05-18T16:04:17;16.10;94.20
46676;DHT22;32412;51.478;5.694;2023-05-18T16:06:43;16.30;94.10
46676;DHT22;32412;51.478;5.694;2023-05-18T16:09:08;16.20;93.50
46676;DHT22;32412;51.478;5.694;2023-05-18T16:11:34;16.00;93.70
46676;DHT22;32412;51.478;5.694;2023-05-18T16:14:00;16.00;93.80
46676;DHT22;32412;51.478;5.694;2023-05-18T16:16:26;16.00;93.70
46676;DHT22;32412;51.478;5.694;2023-05-18T16:18:52;15.80;94.50
46676;DHT22;32412;51.478;5.694;2023-05-18T16:21:18;15.90;94.00
46676;DHT22;32412;51.478;5.694;2023-05-18T16:23:43;15.90;95.10
46676;DHT22;32412;51.478;5.694;2023-05-18T16:26:11;15.90;94.40
46676;DHT22;32412;51.478;5.694;2023-05-18T16:28:37;15.80;94.60
46676;DHT22;32412;51.478;5.694;2023-05-18T16:31:03;15.80;94.50
46676;DHT22;32412;51.478;5.694;2023-05-18T16:33:34;15.90;94.10
46676;DHT22;32412;51.478;5.694;2023-05-18T16:36:01;15.80;94.50